createdAt,value
2023-02-02T00:01:48.611Z,7.23
2023-02-02T00:04:21.895Z,7.27
2023-02-02T00:06:50.460Z,7.40
2023-02-02T00:09:20.170Z,11.43
2023-02-02T00:11:51.226Z,8.73
2023-02-02T00:14:20.134Z,7.87
2023-02-02T00:16:49.702Z,7.47
2023-02-02T00:19:20.082Z,8.93
2023-02-02T00:21:48.940Z,8.33
2023-02-02T00:24:19.205Z,9.90
2023-02-02T00:26:50.637Z,8.30
2023-02-02T00:29:21.039Z,8.23
2023-02-02T00:31:49.859Z,8.80
2023-02-02T00:34:18.700Z,9.07
2023-02-02T00:36:47.517Z,7.50
2023-02-02T00:39:20.060Z,7.63
2023-02-02T00:41:49.998Z,7.73
2023-02-02T00:44:35.947Z,7.77
2023-02-02T00:47:04.894Z,7.97
2023-02-02T00:49:33.369Z,7.87
2023-02-02T00:52:01.846Z,8.83
2023-02-02T00:54:30.590Z,6.37
2023-02-02T00:57:00.317Z,7.33
2023-02-02T00:59:28.783Z,7.87
2023-02-02T01:01:57.151Z,6.50
2023-02-02T01:04:26.056Z,7.23
2023-02-02T01:06:54.650Z,7.83
2023-02-02T01:09:23.161Z,6.83
2023-02-02T01:11:51.497Z,6.47
2023-02-02T01:14:22.606Z,7.70
2023-02-02T01:16:50.991Z,6.17
2023-02-02T01:19:19.451Z,7.70
2023-02-02T01:21:51.193Z,7.67
2023-02-02T01:24:19.531Z,6.57
2023-02-02T01:26:50.174Z,7.77
2023-02-02T01:29:18.608Z,7.20
2023-02-02T01:31:48.802Z,7.20
2023-02-02T01:34:17.244Z,7.97
2023-02-02T01:36:45.603Z,8.27
2023-02-02T01:39:13.959Z,7.27
2023-02-02T01:41:43.323Z,6.53
2023-02-02T01:44:48.722Z,8.20
2023-02-02T01:47:19.574Z,6.20
2023-02-02T01:49:48.428Z,5.57
2023-02-02T01:52:19.035Z,8.17
2023-02-02T01:54:50.439Z,6.03
2023-02-02T01:57:26.035Z,7.10
2023-02-02T01:59:56.120Z,8.37
2023-02-02T02:02:27.006Z,6.77
2023-02-02T02:04:56.309Z,6.53
2023-02-02T02:07:25.034Z,6.70
2023-02-02T02:09:53.340Z,7.67
2023-02-02T02:12:21.737Z,6.97
2023-02-02T02:15:09.401Z,6.03
2023-02-02T02:17:50.961Z,7.10
2023-02-02T02:21:05.964Z,7.67
2023-02-02T02:24:23.195Z,8.73
2023-02-02T02:27:19.974Z,6.10
2023-02-02T02:30:15.266Z,7.83
2023-02-02T02:32:48.029Z,7.10
2023-02-02T02:35:29.836Z,7.50
2023-02-02T02:38:06.166Z,7.73
2023-02-02T02:40:39.229Z,7.67
2023-02-02T02:43:12.249Z,7.20
2023-02-02T02:45:42.087Z,7.93
2023-02-02T02:48:12.188Z,6.83
2023-02-02T02:50:40.817Z,6.27
2023-02-02T02:53:16.316Z,6.43
2023-02-02T02:55:50.327Z,6.03
2023-02-02T02:58:22.850Z,6.50
2023-02-02T03:01:01.333Z,5.73
2023-02-02T03:03:55.158Z,9.00
2023-02-02T03:06:29.114Z,6.13
2023-02-02T03:09:01.766Z,8.43
2023-02-02T03:11:30.497Z,6.97
2023-02-02T03:13:59.212Z,4.77
2023-02-02T03:16:27.604Z,5.97
2023-02-02T03:18:58.217Z,5.30
2023-02-02T03:21:26.723Z,6.77
2023-02-02T03:23:55.146Z,6.20
2023-02-02T03:26:23.646Z,6.47
2023-02-02T03:28:53.501Z,6.40
2023-02-02T03:31:22.065Z,5.23
2023-02-02T03:33:50.429Z,4.30
2023-02-02T03:36:20.178Z,5.80
2023-02-02T03:38:48.564Z,5.47
2023-02-02T03:41:17.123Z,5.43
2023-02-02T03:43:46.087Z,5.77
2023-02-02T03:46:14.820Z,4.80
2023-02-02T03:48:43.592Z,4.80
2023-02-02T03:51:14.440Z,5.13
2023-02-02T03:53:47.839Z,5.30
2023-02-02T03:56:17.387Z,6.13
2023-02-02T03:58:47.531Z,5.77
2023-02-02T04:01:17.552Z,4.83
2023-02-02T04:03:47.558Z,6.07
2023-02-02T04:06:15.914Z,6.20
2023-02-02T04:08:45.664Z,7.50
2023-02-02T04:11:14.128Z,5.70
2023-02-02T04:13:43.505Z,5.40
2023-02-02T04:16:12.924Z,5.27
2023-02-02T04:18:41.397Z,5.33
2023-02-02T04:21:10.267Z,4.57
2023-02-02T04:23:38.574Z,6.77
2023-02-02T04:26:08.433Z,4.93
2023-02-02T04:28:36.837Z,6.17
2023-02-02T04:31:05.466Z,6.00
2023-02-02T04:33:35.789Z,5.90
2023-02-02T04:36:04.258Z,5.37
2023-02-02T04:38:32.573Z,6.13
2023-02-02T04:41:00.879Z,5.40
2023-02-02T04:43:30.584Z,6.43
2023-02-02T04:45:59.016Z,5.73
2023-02-02T04:48:27.445Z,5.47
2023-02-02T04:51:00.953Z,5.77
2023-02-02T04:53:30.160Z,4.73
2023-02-02T04:55:59.051Z,6.07
2023-02-02T04:58:27.467Z,5.53
2023-02-02T05:00:57.266Z,5.00
2023-02-02T05:03:26.029Z,5.33
2023-02-02T05:06:02.717Z,5.93
2023-02-02T05:08:31.103Z,6.67
2023-02-02T05:10:59.687Z,5.33
2023-02-02T05:13:27.996Z,5.07
2023-02-02T05:15:57.871Z,6.07
2023-02-02T05:18:26.607Z,6.10
2023-02-02T05:20:55.112Z,6.23
2023-02-02T05:23:23.475Z,5.50
2023-02-02T05:25:53.877Z,6.13
2023-02-02T05:28:22.994Z,5.60
2023-02-02T05:30:51.452Z,5.63
2023-02-02T05:33:21.214Z,6.17
2023-02-02T05:35:50.285Z,5.60
2023-02-02T05:38:18.628Z,6.80
2023-02-02T05:40:47.034Z,6.57
2023-02-02T05:43:15.397Z,7.17
2023-02-02T05:45:44.024Z,6.60
2023-02-02T05:48:15.046Z,7.27
2023-02-02T05:50:49.654Z,6.93
2023-02-02T05:53:18.463Z,7.23
2023-02-02T05:55:46.866Z,6.03
2023-02-02T05:58:15.236Z,7.33
2023-02-02T06:00:43.534Z,8.53
2023-02-02T06:03:13.397Z,7.87
2023-02-02T06:05:41.951Z,7.53
2023-02-02T06:08:11.723Z,7.00
2023-02-02T06:10:41.079Z,6.40
2023-02-02T06:13:09.688Z,6.60
2023-02-02T06:15:38.810Z,6.30
2023-02-02T06:18:22.439Z,6.50
2023-02-02T06:21:32.364Z,6.20
2023-02-02T06:25:20.987Z,7.57
2023-02-02T06:27:07.288Z,8.40
2023-02-02T06:29:35.601Z,8.20
2023-02-02T06:32:04.091Z,8.27
2023-02-02T06:34:32.486Z,9.53
2023-02-02T06:37:01.013Z,10.70
2023-02-02T06:39:30.666Z,9.80
2023-02-02T06:42:02.025Z,10.97
2023-02-02T06:44:34.558Z,9.47
2023-02-02T06:47:03.026Z,11.87
2023-02-02T06:49:31.444Z,11.27
2023-02-02T06:51:59.711Z,10.00
2023-02-02T06:55:01.916Z,8.97
2023-02-02T06:57:39.962Z,11.00
2023-02-02T07:00:09.759Z,9.93
2023-02-02T07:02:38.352Z,16.17
2023-02-02T07:05:07.427Z,17.57
2023-02-02T07:07:36.463Z,15.80
2023-02-02T07:10:07.269Z,12.47
2023-02-02T07:12:35.765Z,12.20
2023-02-02T07:15:04.322Z,10.93
2023-02-02T07:17:32.632Z,10.23
2023-02-02T07:20:01.027Z,9.57
2023-02-02T07:22:29.455Z,9.33
2023-02-02T07:24:57.831Z,12.67
2023-02-02T07:27:27.595Z,10.17
2023-02-02T07:29:55.920Z,8.53
2023-02-02T07:32:24.239Z,8.37
2023-02-02T07:34:52.623Z,10.73
2023-02-02T07:37:20.982Z,11.43
2023-02-02T07:39:49.351Z,14.47
2023-02-02T07:42:17.743Z,16.70
2023-02-02T07:44:47.443Z,15.93
2023-02-02T07:47:15.718Z,17.10
2023-02-02T07:49:45.154Z,16.63
2023-02-02T07:52:13.514Z,18.23
2023-02-02T07:54:41.884Z,20.63
2023-02-02T07:57:10.886Z,17.30
2023-02-02T07:59:39.312Z,19.50
2023-02-02T08:02:10.895Z,18.70
2023-02-02T08:04:39.340Z,18.97
2023-02-02T08:07:07.771Z,18.07
2023-02-02T08:09:36.062Z,18.43
2023-02-02T08:12:04.680Z,18.37
2023-02-02T08:14:34.185Z,20.53
2023-02-02T08:17:03.602Z,21.50
2023-02-02T08:19:34.097Z,22.80
2023-02-02T08:22:02.590Z,23.43
2023-02-02T08:24:31.279Z,22.23
2023-02-02T08:26:59.639Z,20.80
2023-02-02T08:29:28.910Z,22.23
2023-02-02T08:31:57.320Z,20.43
2023-02-02T08:34:25.751Z,21.30
2023-02-02T08:36:56.108Z,22.40
2023-02-02T08:39:24.727Z,22.23
2023-02-02T08:41:58.400Z,22.77
2023-02-02T08:44:27.827Z,24.33
2023-02-02T08:47:12.177Z,20.80
2023-02-02T08:49:42.508Z,21.40
2023-02-02T08:52:12.371Z,22.77
2023-02-02T08:54:40.698Z,23.90
2023-02-02T08:57:09.320Z,24.40
2023-02-02T08:59:37.621Z,27.20
2023-02-02T09:02:06.059Z,27.67
2023-02-02T09:04:34.449Z,24.20
2023-02-02T09:07:03.541Z,22.90
2023-02-02T09:09:33.587Z,21.40
2023-02-02T09:12:02.380Z,20.20
2023-02-02T09:14:30.901Z,20.87
2023-02-02T09:16:59.249Z,19.23
2023-02-02T09:19:27.773Z,20.07
2023-02-02T09:21:56.256Z,20.30
2023-02-02T09:24:24.713Z,20.77
2023-02-02T09:26:54.504Z,20.03
2023-02-02T09:29:22.963Z,21.63
2023-02-02T09:31:51.536Z,19.77
2023-02-02T09:34:19.990Z,19.03
2023-02-02T09:36:48.575Z,21.13
2023-02-02T09:39:21.473Z,20.63
2023-02-02T09:42:27.320Z,21.27
2023-02-02T09:45:10.367Z,21.47
2023-02-02T09:47:53.554Z,24.83
2023-02-02T09:50:36.415Z,25.57
2023-02-02T09:53:12.175Z,29.53
2023-02-02T09:55:42.751Z,29.87
2023-02-02T09:58:20.173Z,28.20
2023-02-02T10:00:56.969Z,27.47
2023-02-02T10:03:31.907Z,26.03
2023-02-02T10:06:07.633Z,25.60
2023-02-02T10:08:53.450Z,24.07
2023-02-02T10:11:41.438Z,22.60
2023-02-02T10:14:19.325Z,21.60
2023-02-02T10:16:49.771Z,20.17
2023-02-02T10:19:18.207Z,23.23
2023-02-02T10:21:53.402Z,22.10
2023-02-02T10:24:23.921Z,20.60
2023-02-02T10:26:54.812Z,20.17
2023-02-02T10:29:48.216Z,19.80
2023-02-02T10:32:28.199Z,16.57
2023-02-02T10:35:14.179Z,15.50
2023-02-02T10:37:51.418Z,14.37
2023-02-02T10:40:30.984Z,15.30
2023-02-02T10:43:38.983Z,17.50
2023-02-02T10:46:15.687Z,13.93
2023-02-02T10:48:47.175Z,14.77
2023-02-02T10:51:22.401Z,14.80
2023-02-02T10:53:53.390Z,14.97
2023-02-02T10:56:27.629Z,12.63
2023-02-02T10:59:02.461Z,14.70
2023-02-02T11:01:32.473Z,12.20
2023-02-02T11:04:18.627Z,12.20
2023-02-02T11:06:52.608Z,12.80
2023-02-02T11:09:24.497Z,13.27
2023-02-02T11:11:55.949Z,11.97
2023-02-02T11:14:44.544Z,10.27
2023-02-02T11:17:21.547Z,13.40
2023-02-02T11:19:50.977Z,14.10
2023-02-02T11:22:32.567Z,13.95
2023-02-02T11:25:03.862Z,14.40
2023-02-02T11:27:35.411Z,16.52
2023-02-02T11:30:14.115Z,15.73
2023-02-02T11:32:48.029Z,16.85
2023-02-02T11:35:23.333Z,14.00
2023-02-02T11:38:01.205Z,12.77
2023-02-02T11:40:32.829Z,10.40
2023-02-02T11:43:03.831Z,10.80
2023-02-02T11:45:36.598Z,11.68
2023-02-02T11:48:16.710Z,9.52
2023-02-02T11:50:49.244Z,7.03
2023-02-02T11:53:26.758Z,9.85
2023-02-02T11:55:56.404Z,9.68
2023-02-02T11:58:27.713Z,9.00
2023-02-02T12:00:59.402Z,7.43
2023-02-02T12:03:33.037Z,10.35
2023-02-02T12:06:03.259Z,8.32
2023-02-02T12:08:32.148Z,8.38
2023-02-02T12:11:02.327Z,10.45
2023-02-02T12:13:53.074Z,12.95
2023-02-02T12:16:38.492Z,9.23
2023-02-02T12:19:26.405Z,8.88
2023-02-02T12:22:05.116Z,9.05
2023-02-02T12:24:36.787Z,8.73
2023-02-02T12:27:19.612Z,9.13
2023-02-02T12:30:08.932Z,8.75
2023-02-02T12:32:52.771Z,7.18
2023-02-02T12:35:35.182Z,9.60
2023-02-02T12:38:17.520Z,9.02
2023-02-02T12:41:02.753Z,8.63
2023-02-02T12:43:41.058Z,7.63
2023-02-02T12:46:20.775Z,8.80
2023-02-02T12:49:06.272Z,10.13
2023-02-02T12:51:55.034Z,8.02
2023-02-02T12:54:47.498Z,6.20
2023-02-02T12:57:32.402Z,7.03
2023-02-02T13:00:28.552Z,7.43
2023-02-02T13:03:10.693Z,9.15
2023-02-02T13:05:54.787Z,7.68
2023-02-02T13:08:29.999Z,7.88
2023-02-02T13:11:05.453Z,5.97
2023-02-02T13:13:38.578Z,7.88
2023-02-02T13:16:11.842Z,6.90
2023-02-02T13:18:43.789Z,6.10
2023-02-02T13:21:16.975Z,5.75
2023-02-02T13:24:07.322Z,5.40
2023-02-02T13:26:40.427Z,6.15
2023-02-02T13:29:24.440Z,7.75
2023-02-02T13:32:06.580Z,9.10
2023-02-02T13:34:54.105Z,10.15
2023-02-02T13:37:29.554Z,10.00
2023-02-02T13:40:02.520Z,9.70
2023-02-02T13:42:42.204Z,10.27
2023-02-02T13:45:26.963Z,7.55
2023-02-02T13:48:06.386Z,15.07
2023-02-02T13:50:45.255Z,10.35
2023-02-02T13:53:43.034Z,11.85
2023-02-02T13:56:40.919Z,8.20
2023-02-02T13:59:26.694Z,10.73
2023-02-02T14:01:58.336Z,19.10
2023-02-02T14:04:30.555Z,42.97
2023-02-02T14:09:32.892Z,20.50
2023-02-02T14:12:07.253Z,13.50
2023-02-02T14:14:38.916Z,9.63
2023-02-02T14:17:09.145Z,10.98
2023-02-02T14:19:55.077Z,8.95
2023-02-02T14:22:45.680Z,7.68
2023-02-02T14:25:51.659Z,12.05
2023-02-02T14:28:43.821Z,6.43
2023-02-02T14:31:28.525Z,8.90
2023-02-02T14:34:27.813Z,11.05
2023-02-02T14:37:12.540Z,10.18
2023-02-02T14:39:54.648Z,9.88
2023-02-02T14:42:52.670Z,8.80
2023-02-02T14:45:40.443Z,7.18
2023-02-02T14:48:12.867Z,9.38
2023-02-02T14:50:49.374Z,8.45
2023-02-02T14:53:23.469Z,8.18
2023-02-02T14:55:59.737Z,12.45
2023-02-02T14:58:32.793Z,7.18
2023-02-02T15:01:15.619Z,9.20
2023-02-02T15:03:56.824Z,7.78
2023-02-02T15:06:32.604Z,8.10
2023-02-02T15:09:39.180Z,7.32
2023-02-02T15:12:26.276Z,6.95
2023-02-02T15:15:05.402Z,13.15
2023-02-02T15:18:01.843Z,16.20
2023-02-02T15:20:33.431Z,11.70
2023-02-02T15:23:06.542Z,11.80
2023-02-02T15:25:42.228Z,12.52
2023-02-02T15:28:19.281Z,9.48
2023-02-02T15:30:54.254Z,9.00
2023-02-02T15:33:31.140Z,8.23
2023-02-02T15:36:04.789Z,8.43
2023-02-02T15:38:36.985Z,7.95
2023-02-02T15:41:08.159Z,7.32
2023-02-02T15:43:36.784Z,7.63
2023-02-02T15:46:08.236Z,8.18
2023-02-02T15:48:38.058Z,8.80
2023-02-02T15:51:08.424Z,8.57
2023-02-02T15:53:49.946Z,8.77
2023-02-02T15:56:30.085Z,8.45
2023-02-02T15:59:00.674Z,10.55
2023-02-02T16:01:34.389Z,10.27
2023-02-02T16:04:18.575Z,8.33
2023-02-02T16:06:47.655Z,14.13
2023-02-02T16:09:25.234Z,17.20
2023-02-02T16:11:53.906Z,33.77
2023-02-02T16:14:22.560Z,27.93
2023-02-02T16:16:51.076Z,27.73
2023-02-02T16:19:24.034Z,24.00
2023-02-02T16:21:55.815Z,26.70
2023-02-02T16:24:27.983Z,29.40
2023-02-02T16:26:59.347Z,31.43
2023-02-02T16:29:29.006Z,30.47
2023-02-02T16:31:58.447Z,35.87
2023-02-02T16:34:47.318Z,35.73
2023-02-02T16:37:17.487Z,33.57
2023-02-02T16:39:45.898Z,32.80
2023-02-02T16:42:25.538Z,32.87
2023-02-02T16:44:54.666Z,32.80
2023-02-02T16:47:37.920Z,32.03
2023-02-02T16:50:32.220Z,39.27
2023-02-02T16:53:03.604Z,44.67
2023-02-02T16:55:49.138Z,37.67
2023-02-02T16:58:21.858Z,35.03
2023-02-02T17:01:12.315Z,49.13
2023-02-02T17:03:50.298Z,42.43
2023-02-02T17:06:38.368Z,36.80
2023-02-02T17:09:28.799Z,32.07
2023-02-02T17:12:00.427Z,31.30
2023-02-02T17:14:34.586Z,36.80
2023-02-02T17:17:05.663Z,39.97
2023-02-02T17:19:35.206Z,39.20
2023-02-02T17:22:08.735Z,40.87
2023-02-02T17:24:37.132Z,39.50
2023-02-02T17:27:05.813Z,41.40
2023-02-02T17:29:35.363Z,41.57
2023-02-02T17:32:03.606Z,39.43
2023-02-02T17:34:31.938Z,33.13
2023-02-02T17:37:00.323Z,26.47
2023-02-02T17:39:30.286Z,27.37
2023-02-02T17:41:58.676Z,35.00
2023-02-02T17:44:27.407Z,41.17
2023-02-02T17:46:55.675Z,60.30
2023-02-02T17:49:24.505Z,74.90
2023-02-02T17:51:52.776Z,80.90
2023-02-02T17:54:21.138Z,77.43
2023-02-02T17:56:50.949Z,69.93
2023-02-02T17:59:19.250Z,59.57
2023-02-02T18:01:47.620Z,54.27
2023-02-02T18:04:16.904Z,46.27
2023-02-02T18:06:45.279Z,41.13
2023-02-02T18:09:13.835Z,43.77
2023-02-02T18:11:42.743Z,41.63
2023-02-02T18:14:12.813Z,41.07
2023-02-02T18:16:41.407Z,35.80
2023-02-02T18:19:10.423Z,38.63
2023-02-02T18:21:38.884Z,36.43
2023-02-02T18:24:07.491Z,34.73
2023-02-02T18:26:35.888Z,28.57
2023-02-02T18:29:04.196Z,25.20
2023-02-02T18:31:34.158Z,22.07
2023-02-02T18:34:02.510Z,16.97
2023-02-02T18:36:30.825Z,18.77
2023-02-02T18:38:59.753Z,20.40
2023-02-02T18:41:28.362Z,19.43
2023-02-02T18:43:56.749Z,19.03
2023-02-02T18:46:26.668Z,18.17
2023-02-02T18:48:56.781Z,22.93
2023-02-02T18:51:25.334Z,22.43
2023-02-02T18:53:59.768Z,28.43
2023-02-02T18:56:28.669Z,28.13
2023-02-02T18:58:57.328Z,24.33
2023-02-02T19:01:26.705Z,25.50
2023-02-02T19:03:58.000Z,22.57
2023-02-02T19:06:48.254Z,20.83
2023-02-02T19:09:17.511Z,22.83
2023-02-02T19:11:47.877Z,28.77
2023-02-02T19:14:18.505Z,26.03
2023-02-02T19:16:48.438Z,24.40
2023-02-02T19:19:26.833Z,25.23
2023-02-02T19:21:57.008Z,26.53
2023-02-02T19:24:26.794Z,29.50
2023-02-02T19:26:55.684Z,28.07
2023-02-02T19:29:25.918Z,23.50
2023-02-02T19:31:57.637Z,31.30
2023-02-02T19:34:27.537Z,30.53
2023-02-02T19:36:55.793Z,25.60
2023-02-02T19:39:30.873Z,22.67
2023-02-02T19:42:01.889Z,21.03
2023-02-02T19:44:34.142Z,20.60
2023-02-02T19:47:20.505Z,18.17
2023-02-02T19:49:50.333Z,16.20
2023-02-02T19:52:24.127Z,15.17
2023-02-02T19:54:53.053Z,14.47
2023-02-02T19:57:25.911Z,12.47
2023-02-02T19:59:55.221Z,15.43
2023-02-02T20:02:53.193Z,15.67
2023-02-02T20:05:24.548Z,19.07
2023-02-02T20:07:59.249Z,26.53
2023-02-02T20:10:30.252Z,27.83
2023-02-02T20:12:58.617Z,39.50
2023-02-02T20:15:32.422Z,38.50
2023-02-02T20:18:03.343Z,27.00
2023-02-02T20:20:39.257Z,21.83
2023-02-02T20:23:21.424Z,18.33
2023-02-02T20:25:49.640Z,23.20
2023-02-02T20:28:33.455Z,25.37
2023-02-02T20:31:05.040Z,28.23
2023-02-02T20:33:33.760Z,21.30
2023-02-02T20:36:16.799Z,17.47
2023-02-02T20:38:45.994Z,17.63
2023-02-02T20:41:16.056Z,14.07
2023-02-02T20:43:46.125Z,15.67
2023-02-02T20:46:15.288Z,14.83
2023-02-02T20:48:43.611Z,14.97
2023-02-02T20:51:13.267Z,17.57
2023-02-02T20:53:41.863Z,14.70
2023-02-02T20:56:10.216Z,17.37
2023-02-02T20:58:38.527Z,14.80
2023-02-02T21:01:07.094Z,13.50
2023-02-02T21:03:35.764Z,11.43
2023-02-02T21:06:04.060Z,16.00
2023-02-02T21:08:34.259Z,22.60
2023-02-02T21:11:02.525Z,24.83
2023-02-02T21:13:30.933Z,22.80
2023-02-02T21:15:59.662Z,20.53
2023-02-02T21:18:28.214Z,21.57
2023-02-02T21:20:56.456Z,20.63
2023-02-02T21:23:25.130Z,17.90
2023-02-02T21:25:55.168Z,18.83
2023-02-02T21:28:23.795Z,19.10
2023-02-02T21:30:52.229Z,24.57
2023-02-02T21:33:20.632Z,24.67
2023-02-02T21:35:49.020Z,23.03
2023-02-02T21:38:17.773Z,18.63
2023-02-02T21:40:47.271Z,14.23
2023-02-02T21:43:19.786Z,17.93
2023-02-02T21:45:51.930Z,18.50
2023-02-02T21:48:29.739Z,16.17
2023-02-02T21:50:58.458Z,15.53
2023-02-02T21:53:28.801Z,17.40
2023-02-02T21:55:59.691Z,15.87
2023-02-02T21:58:35.483Z,16.17
2023-02-02T22:01:19.448Z,17.13
2023-02-02T22:03:50.080Z,19.13
2023-02-02T22:06:27.136Z,18.07
2023-02-02T22:09:01.614Z,21.60
2023-02-02T22:11:34.272Z,21.53
2023-02-02T22:14:18.191Z,25.27
2023-02-02T22:16:50.273Z,26.97
2023-02-02T22:19:34.534Z,25.20
2023-02-02T22:22:14.991Z,26.53
2023-02-02T22:24:44.222Z,25.60
2023-02-02T22:27:44.169Z,22.37
2023-02-02T22:30:21.706Z,23.03
2023-02-02T22:32:50.152Z,19.37
2023-02-02T22:35:19.458Z,20.77
2023-02-02T22:37:47.753Z,20.73
2023-02-02T22:40:16.706Z,21.37
2023-02-02T22:42:45.507Z,23.27
2023-02-02T22:45:15.692Z,18.67
2023-02-02T22:47:47.325Z,18.33
2023-02-02T22:50:16.429Z,17.00
2023-02-02T22:52:45.014Z,14.23
2023-02-02T22:55:14.278Z,14.83
2023-02-02T22:57:42.918Z,16.63
2023-02-02T23:00:14.201Z,19.17
2023-02-02T23:02:44.279Z,16.27
2023-02-02T23:05:15.054Z,14.50
2023-02-02T23:07:44.326Z,13.60
2023-02-02T23:10:14.125Z,12.17
2023-02-02T23:12:43.566Z,13.73
2023-02-02T23:15:12.548Z,12.83
2023-02-02T23:17:41.588Z,13.37
2023-02-02T23:20:15.956Z,13.93
2023-02-02T23:22:44.287Z,13.80
2023-02-02T23:25:13.827Z,12.50
2023-02-02T23:27:42.529Z,21.77
2023-02-02T23:30:12.548Z,22.90
2023-02-02T23:32:40.984Z,21.83
2023-02-02T23:35:11.895Z,26.30
2023-02-02T23:37:40.500Z,27.30
2023-02-02T23:40:09.961Z,21.80
2023-02-02T23:42:38.802Z,20.27
2023-02-02T23:45:08.390Z,18.70
2023-02-02T23:47:37.056Z,15.63
2023-02-02T23:50:07.906Z,16.23
2023-02-02T23:52:38.416Z,17.63
2023-02-02T23:55:08.543Z,18.33
2023-02-02T23:57:37.650Z,15.13
